Government of Jersey

Home Log in

METAR EGJJ 221920Z 01004KT CAVOK 14/12 Q1026

METAR EGJB 221920Z 35004KT CAVOK 13/13 Q1026

METAR EGJA 221720Z 36005KT 340V040 CAVOK 16/13 Q1026

METAR LFRD 221930Z AUTO 36003KT CAVOK 13/11 Q1025 NOSIG

METAR LFRC 221930Z AUTO 36004KT CAVOK 13/12 Q1026